Malaga, Washington
Current Conditions -  °F | °C
As of 3:55 AM on Monday 26 Jan 2015 (Local Time) from KEAT Reporting Station
Overcast Overcast  
Wind Chill: 29°   Ceiling: 200
Heat Index: 35°   Visibility: 10mi
Dew Point: 33°   Wind: 7mph
Humidity: 92%   Direction: 290°WNW
Pressure: 30.13"   Gusts: NA
Location:  47.35°N, 120.2°W
Report Text: KEAT 261155Z AUTO 29006KT 10SM OVC002 02/01 A3013 RMK AO2 SLP213 T00170006 10028 20017 56011 $
Loading
Personal Weather Stations






























Interactive Weather Map New forecast layout! Learn more

10-Day Weather Forecast

Advertisements
Track Severe Weather on mobile